Time;durP1;ratioP1;P1;durP2;ratioP2;P2;SDS_P1;SDS_P2;PMS_P1;PMS_P2;Temp;Humidity;BMP_temperature;BMP_pressure;BME280_temperature;BME280_humidity;BME280_pressure;Samples;Min_cycle;Max_cycle;Signal;HPM_P1;HPM_P2
2022/01/10 00:00:00;;;;;;;5.93;3.40;;;15.10;75.20;;;;;;2252535;63;30370;-70
2022/01/10 00:02:35;;;;;;;9.73;3.65;;;15.10;75.30;;;;;;2260032;63;30857;-70
2022/01/10 00:05:02;;;;;;;7.13;3.57;;;15.00;75.40;;;;;;2259999;63;30127;-70
2022/01/10 00:07:31;;;;;;;9.48;3.17;;;15.00;75.40;;;;;;2259887;63;30496;-70
2022/01/10 00:09:56;;;;;;;5.88;2.92;;;15.00;75.50;;;;;;2260082;63;30438;-70
2022/01/10 00:12:22;;;;;;;7.35;3.35;;;14.90;75.50;;;;;;2260074;63;30564;-70
2022/01/10 00:14:48;;;;;;;8.68;3.83;;;14.90;75.60;;;;;;2259780;62;30293;-70
2022/01/10 00:17:14;;;;;;;8.55;3.40;;;14.90;75.70;;;;;;2260090;63;30292;-70
2022/01/10 00:19:40;;;;;;;8.77;3.40;;;14.90;75.70;;;;;;2260080;63;30090;-70
2022/01/10 00:22:10;;;;;;;5.38;3.30;;;14.80;75.80;;;;;;2259726;62;30210;-70
2022/01/10 00:24:36;;;;;;;5.38;3.10;;;14.80;75.80;;;;;;2259916;63;30249;-70
2022/01/10 00:27:04;;;;;;;6.00;2.97;;;14.80;75.90;;;;;;2259716;63;30110;-70
2022/01/10 00:29:30;;;;;;;6.80;3.15;;;14.70;76.00;;;;;;2252614;63;31012;-70
2022/01/10 00:31:58;;;;;;;6.68;2.80;;;14.70;76.00;;;;;;2252081;63;32109;-70
2022/01/10 00:34:34;;;;;;;5.88;2.78;;;14.70;76.10;;;;;;2252463;63;30505;-70
2022/01/10 00:37:00;;;;;;;6.25;3.03;;;14.60;76.10;;;;;;2254581;63;30974;-70
2022/01/10 00:39:26;;;;;;;6.30;3.30;;;14.60;76.20;;;;;;2261263;63;31141;-70
2022/01/10 00:41:51;;;;;;;6.97;3.00;;;14.60;76.20;;;;;;2253620;63;30290;-70
2022/01/10 00:44:24;;;;;;;7.00;2.78;;;14.60;76.30;;;;;;2261313;63;30045;-70
2022/01/10 00:46:50;;;;;;;7.05;3.00;;;14.60;76.40;;;;;;2261471;63;30397;-70
2022/01/10 00:49:16;;;;;;;4.53;2.85;;;14.50;76.40;;;;;;2260891;63;30191;-70
2022/01/10 00:51:42;;;;;;;7.22;3.30;;;14.50;76.50;;;;;;2261005;63;31133;-70
2022/01/10 00:54:08;;;;;;;5.05;2.67;;;14.50;76.50;;;;;;2261046;62;30192;-70
2022/01/10 00:56:33;;;;;;;7.38;3.17;;;14.50;76.60;;;;;;2260744;63;30180;-70
2022/01/10 00:58:59;;;;;;;4.97;2.75;;;14.50;76.60;;;;;;2261092;63;30285;-70
2022/01/10 01:01:25;;;;;;;6.78;2.92;;;14.40;76.60;;;;;;2261031;63;30782;-70
2022/01/10 01:03:51;;;;;;;6.75;3.20;;;14.40;76.70;;;;;;2260727;63;30548;-70
2022/01/10 01:06:17;;;;;;;4.53;3.03;;;14.40;76.80;;;;;;2253823;63;30175;-70
2022/01/10 01:08:44;;;;;;;6.18;3.05;;;14.30;76.80;;;;;;2260920;63;30362;-70
2022/01/10 01:16:18;;;;;;;5.55;2.70;;;14.30;77.00;;;;;;2253887;63;30192;-70
2022/01/10 01:24:07;;;;;;;5.63;3.08;;;14.20;77.10;;;;;;2254658;63;30436;-70
2022/01/10 01:26:38;;;;;;;4.78;2.50;;;14.20;77.20;;;;;;2253791;63;30295;-70
2022/01/10 01:29:06;;;;;;;4.40;2.63;;;14.20;77.30;;;;;;2253756;63;30170;-70
2022/01/10 01:31:32;;;;;;;3.53;2.70;;;14.20;77.30;;;;;;2246712;63;32071;-70
2022/01/10 01:33:58;;;;;;;4.47;2.38;;;14.10;77.30;;;;;;2253514;63;30328;-70
2022/01/10 01:36:26;;;;;;;5.47;2.35;;;14.10;77.40;;;;;;2260818;63;30220;-70
2022/01/10 01:38:52;;;;;;;6.68;2.90;;;14.10;77.40;;;;;;2260727;63;30525;-71
2022/01/10 01:43:45;;;;;;;5.15;2.33;;;14.10;77.50;;;;;;2260848;63;30645;-70
2022/01/10 01:46:10;;;;;;;4.55;2.40;;;14.00;77.60;;;;;;2253137;63;30747;-71
2022/01/10 01:48:36;;;;;;;5.43;2.72;;;14.00;77.60;;;;;;2253472;63;30229;-71
2022/01/10 01:51:03;;;;;;;4.70;2.33;;;14.00;77.60;;;;;;2260678;63;30746;-70
2022/01/10 01:53:30;;;;;;;5.45;2.55;;;14.00;77.70;;;;;;2253308;63;30191;-70
2022/01/10 01:56:01;;;;;;;5.35;2.28;;;14.00;77.80;;;;;;2260753;63;30196;-70
2022/01/10 01:58:27;;;;;;;4.10;2.38;;;14.00;77.80;;;;;;2253302;63;30204;-71
2022/01/10 02:00:54;;;;;;;5.57;2.50;;;13.90;77.70;;;;;;2260594;63;32131;-70
2022/01/10 02:03:38;;;;;;;4.00;2.15;;;13.90;77.80;;;;;;2260726;63;30391;-71
2022/01/10 02:06:05;;;;;;;4.55;2.40;;;13.90;78.10;;;;;;2260527;63;30033;-70
2022/01/10 02:08:31;;;;;;;5.97;2.47;;;13.90;78.00;;;;;;2253435;63;30262;-70
2022/01/10 02:10:57;;;;;;;3.95;2.55;;;13.80;77.90;;;;;;2260659;63;30175;-70
2022/01/10 02:13:23;;;;;;;4.53;2.25;;;13.80;78.00;;;;;;2260254;63;30274;-71
2022/01/10 02:15:56;;;;;;;4.05;2.20;;;13.80;78.00;;;;;;2260686;63;30075;-70
2022/01/10 02:18:22;;;;;;;4.47;2.25;;;13.80;78.00;;;;;;2260628;63;30018;-71
2022/01/10 02:20:48;;;;;;;4.47;2.35;;;13.80;78.10;;;;;;2253126;63;30767;-70
2022/01/10 02:23:14;;;;;;;3.85;2.13;;;13.80;78.20;;;;;;2260723;63;30127;-71
2022/01/10 02:25:41;;;;;;;3.22;2.10;;;13.80;78.30;;;;;;2254135;63;30082;-71
2022/01/10 02:28:07;;;;;;;3.17;1.90;;;13.70;78.20;;;;;;2253450;63;30173;-70
2022/01/10 02:30:34;;;;;;;2.42;2.00;;;13.70;78.20;;;;;;2260678;63;30309;-71
2022/01/10 02:33:01;;;;;;;3.90;2.10;;;13.70;78.30;;;;;;2260495;63;30254;-70
2022/01/10 02:35:30;;;;;;;2.63;1.90;;;13.70;78.40;;;;;;2246459;63;30350;-71
2022/01/10 02:37:56;;;;;;;3.00;2.00;;;13.60;78.40;;;;;;2246921;63;30150;-71
2022/01/10 02:40:24;;;;;;;3.65;2.00;;;13.60;78.40;;;;;;2253272;63;30409;-70
2022/01/10 02:42:50;;;;;;;4.75;2.42;;;13.60;78.50;;;;;;2260203;63;30215;-71
2022/01/10 02:45:16;;;;;;;3.70;1.90;;;13.60;78.50;;;;;;2246595;63;30389;-71
2022/01/10 02:47:42;;;;;;;3.90;2.00;;;13.60;78.50;;;;;;2253054;63;30259;-70
2022/01/10 02:50:09;;;;;;;4.20;2.22;;;13.60;78.60;;;;;;2253114;63;31191;-70
2022/01/10 02:52:35;;;;;;;3.85;2.08;;;13.60;78.60;;;;;;2260457;63;30338;-70
2022/01/10 02:55:05;;;;;;;3.67;1.90;;;13.60;78.60;;;;;;2253050;63;30538;-70
2022/01/10 02:57:31;;;;;;;3.08;2.00;;;13.50;78.70;;;;;;2260134;63;30350;-70
2022/01/10 02:59:58;;;;;;;3.97;1.98;;;13.50;78.70;;;;;;2253239;63;30161;-70
2022/01/10 03:02:29;;;;;;;4.13;2.05;;;13.50;78.70;;;;;;2252975;63;30410;-70
2022/01/10 03:04:54;;;;;;;3.40;2.20;;;13.50;78.80;;;;;;2260629;63;30289;-70
2022/01/10 03:07:24;;;;;;;2.05;1.73;;;13.50;78.80;;;;;;2260533;63;30161;-70
2022/01/10 03:09:53;;;;;;;2.63;1.88;;;13.50;78.90;;;;;;2253227;63;30315;-70
2022/01/10 03:12:19;;;;;;;3.40;2.17;;;13.40;79.00;;;;;;2260457;63;30177;-70
2022/01/10 03:14:47;;;;;;;3.65;2.28;;;13.40;78.90;;;;;;2253197;63;30160;-70
2022/01/10 03:17:14;;;;;;;4.78;2.03;;;13.40;78.90;;;;;;2260263;63;30169;-70
2022/01/10 03:19:40;;;;;;;3.92;2.00;;;13.40;79.00;;;;;;2260196;63;30985;-70
2022/01/10 03:22:06;;;;;;;3.80;2.08;;;13.40;79.00;;;;;;2260249;63;31148;-70
2022/01/10 03:24:35;;;;;;;4.30;1.90;;;13.40;79.00;;;;;;2259948;62;30242;-70
2022/01/10 03:27:01;;;;;;;4.20;1.77;;;13.40;79.00;;;;;;2253009;63;30181;-70
2022/01/10 03:29:27;;;;;;;2.67;1.83;;;13.40;79.10;;;;;;2260206;63;30914;-70
2022/01/10 03:31:55;;;;;;;3.88;1.95;;;13.30;79.00;;;;;;2259962;63;30939;-70
2022/01/10 03:34:21;;;;;;;3.80;2.05;;;13.30;79.00;;;;;;2260234;63;30116;-70
2022/01/10 03:36:46;;;;;;;3.65;2.08;;;13.30;79.00;;;;;;2260069;63;30306;-71
2022/01/10 03:39:15;;;;;;;2.30;1.67;;;13.30;79.00;;;;;;2260058;63;30897;-70
2022/01/10 03:41:41;;;;;;;4.20;2.50;;;13.30;79.80;;;;;;2260198;63;30225;-70
2022/01/10 03:44:07;;;;;;;2.75;1.80;;;13.30;79.00;;;;;;2259999;63;30124;-70
2022/01/10 03:46:33;;;;;;;3.58;1.90;;;13.30;79.70;;;;;;2260149;63;30483;-71
2022/01/10 03:49:00;;;;;;;3.67;1.73;;;13.30;79.00;;;;;;2252887;63;30777;-71
2022/01/10 03:51:26;;;;;;;4.32;2.10;;;13.30;79.00;;;;;;2259901;63;30547;-70
2022/01/10 03:53:52;;;;;;;3.10;1.88;;;13.30;79.00;;;;;;2260076;63;30129;-70
2022/01/10 03:56:20;;;;;;;2.85;1.80;;;13.30;79.00;;;;;;2260149;63;30142;-70
2022/01/10 03:58:46;;;;;;;2.17;1.60;;;13.30;79.00;;;;;;2252616;63;30418;-70
2022/01/10 04:01:12;;;;;;;3.65;1.88;;;13.30;79.00;;;;;;2260167;63;30242;-70
2022/01/10 04:03:39;;;;;;;3.63;2.10;;;13.30;79.00;;;;;;2260044;63;30182;-70
2022/01/10 04:06:05;;;;;;;4.22;2.05;;;13.30;79.00;;;;;;2259867;62;29989;-70
2022/01/10 04:08:32;;;;;;;3.92;2.00;;;13.40;79.00;;;;;;2259896;63;30900;-70
2022/01/10 04:10:58;;;;;;;3.47;1.95;;;13.40;79.00;;;;;;2260101;63;30138;-70
2022/01/10 04:13:24;;;;;;;2.83;1.58;;;13.40;78.90;;;;;;2259644;63;30269;-70
2022/01/10 04:15:50;;;;;;;4.47;2.22;;;13.40;78.80;;;;;;2252680;63;30152;-70
2022/01/10 04:18:16;;;;;;;2.63;1.75;;;13.50;78.70;;;;;;2252638;63;30928;-70
2022/01/10 04:20:43;;;;;;;3.22;1.90;;;13.50;78.50;;;;;;2259643;63;30582;-69
2022/01/10 04:23:09;;;;;;;4.45;1.80;;;13.50;78.50;;;;;;2252807;63;29979;-70
2022/01/10 04:25:35;;;;;;;3.60;2.00;;;13.50;78.50;;;;;;2252630;63;30447;-70
2022/01/10 04:28:01;;;;;;;2.33;1.63;;;13.50;78.50;;;;;;2259843;63;30542;-70
2022/01/10 04:30:27;;;;;;;3.10;1.77;;;13.50;78.50;;;;;;2259909;63;30051;-69
2022/01/10 04:32:57;;;;;;;2.22;1.70;;;13.50;78.50;;;;;;2246080;63;30251;-69
2022/01/10 04:35:23;;;;;;;3.45;1.73;;;13.50;78.40;;;;;;2252532;63;30404;-70
2022/01/10 04:37:49;;;;;;;4.55;1.95;;;13.60;78.40;;;;;;2259822;63;30201;-69
2022/01/10 04:40:15;;;;;;;1.90;1.50;;;13.60;78.30;;;;;;2259450;63;30220;-70
2022/01/10 04:42:41;;;;;;;2.65;1.60;;;13.60;78.30;;;;;;2252504;63;30101;-70
2022/01/10 04:45:07;;;;;;;3.15;1.80;;;13.60;78.20;;;;;;2259565;63;30318;-70
2022/01/10 04:47:33;;;;;;;3.75;2.25;;;13.60;78.20;;;;;;2259524;63;31040;-69
2022/01/10 04:52:34;;;;;;;2.10;1.38;;;13.70;78.00;;;;;;2259827;63;30383;-69
2022/01/10 04:55:00;;;;;;;1.65;1.50;;;13.60;77.90;;;;;;2259472;63;30243;-70
2022/01/10 04:57:26;;;;;;;3.53;1.70;;;13.60;78.00;;;;;;2259720;63;30230;-69
2022/01/10 04:59:52;;;;;;;3.47;2.13;;;13.60;78.00;;;;;;2252413;63;30168;-69
2022/01/10 05:02:18;;;;;;;5.43;2.05;;;13.60;78.00;;;;;;2259434;63;30178;-69
2022/01/10 05:04:44;;;;;;;4.93;1.80;;;13.60;78.00;;;;;;2259600;63;30252;-70
2022/01/10 05:07:10;;;;;;;2.78;1.70;;;13.60;78.00;;;;;;2259797;63;30327;-69
2022/01/10 05:09:36;;;;;;;2.60;1.67;;;13.60;78.00;;;;;;2259463;63;30464;-70
2022/01/10 05:12:02;;;;;;;2.67;1.85;;;13.60;77.90;;;;;;2259642;63;30266;-70
2022/01/10 05:14:28;;;;;;;3.10;2.22;;;13.70;78.00;;;;;;2259573;63;30273;-70
2022/01/10 05:16:54;;;;;;;3.35;1.98;;;13.70;77.90;;;;;;2259318;63;30264;-70
2022/01/10 05:19:22;;;;;;;3.45;1.75;;;13.70;77.80;;;;;;2259780;63;30702;-69
2022/01/10 05:21:48;;;;;;;2.92;1.63;;;13.70;77.80;;;;;;2260354;63;30179;-70
2022/01/10 05:24:14;;;;;;;5.05;1.90;;;13.70;77.70;;;;;;2260726;63;30106;-70
2022/01/10 05:26:40;;;;;;;2.08;1.38;;;13.80;77.70;;;;;;2260891;63;30824;-70
2022/01/10 05:29:06;;;;;;;3.63;1.98;;;13.80;77.70;;;;;;2260419;63;30201;-70
2022/01/10 05:31:34;;;;;;;2.95;1.90;;;13.80;77.50;;;;;;2260610;63;30141;-70
2022/01/10 05:34:02;;;;;;;3.83;2.10;;;13.70;77.50;;;;;;2253717;63;30132;-70
2022/01/10 05:36:28;;;;;;;2.33;1.48;;;13.70;77.50;;;;;;2260616;63;30147;-70
2022/01/10 05:38:54;;;;;;;4.15;2.20;;;13.70;77.50;;;;;;2253627;63;30303;-70
2022/01/10 05:41:24;;;;;;;3.77;1.87;;;13.70;77.60;;;;;;2261015;63;30381;-70
2022/01/10 05:43:55;;;;;;;3.13;1.80;;;13.70;77.60;;;;;;2260849;63;30255;-70
2022/01/10 05:46:21;;;;;;;3.55;1.65;;;13.70;77.60;;;;;;2260529;63;31946;-69
2022/01/10 05:48:51;;;;;;;2.72;1.90;;;13.70;77.60;;;;;;2253486;63;30640;-70
2022/01/10 05:51:17;;;;;;;2.70;1.75;;;13.70;77.60;;;;;;2260597;63;30495;-70
2022/01/10 05:53:43;;;;;;;3.47;2.10;;;13.80;77.50;;;;;;2253535;63;30176;-70
2022/01/10 05:56:09;;;;;;;3.25;1.80;;;13.70;77.50;;;;;;2260708;63;30822;-70
2022/01/10 05:58:35;;;;;;;2.95;1.80;;;13.80;77.50;;;;;;2260517;63;30609;-70
2022/01/10 06:01:01;;;;;;;2.90;1.60;;;13.80;77.50;;;;;;2260789;63;30147;-70
2022/01/10 06:03:32;;;;;;;2.25;1.70;;;13.80;77.50;;;;;;2253921;63;30179;-70
2022/01/10 06:05:58;;;;;;;3.40;2.10;;;13.80;77.40;;;;;;2253152;63;30101;-70
2022/01/10 06:08:24;;;;;;;4.03;2.00;;;13.80;77.40;;;;;;2260765;62;30619;-70
2022/01/10 06:10:49;;;;;;;2.40;1.60;;;13.80;77.40;;;;;;2260706;63;29924;-70
2022/01/10 06:13:15;;;;;;;3.72;1.80;;;13.90;77.30;;;;;;2260403;63;30308;-70
2022/01/10 06:15:41;;;;;;;3.40;1.95;;;13.80;77.20;;;;;;2260651;63;30864;-70
2022/01/10 06:18:07;;;;;;;2.03;1.67;;;13.80;77.20;;;;;;2260546;63;30558;-70
2022/01/10 06:20:33;;;;;;;2.70;1.85;;;13.80;77.20;;;;;;2253332;63;30443;-70
2022/01/10 06:22:59;;;;;;;2.53;2.03;;;13.80;77.30;;;;;;2260556;63;30320;-70
2022/01/10 06:25:26;;;;;;;2.55;2.00;;;13.80;77.30;;;;;;2260583;63;30158;-70
2022/01/10 06:27:52;;;;;;;2.55;1.85;;;13.80;77.30;;;;;;2246614;63;31004;-70
2022/01/10 06:30:18;;;;;;;2.22;1.73;;;13.80;77.20;;;;;;2260772;63;30114;-70
2022/01/10 06:32:43;;;;;;;2.92;1.90;;;13.80;77.20;;;;;;2260405;63;30060;-70
2022/01/10 06:35:11;;;;;;;3.17;2.40;;;13.80;77.20;;;;;;2260478;63;31132;-70
2022/01/10 06:37:37;;;;;;;5.85;2.00;;;13.80;77.20;;;;;;2260561;63;30391;-70
2022/01/10 06:40:05;;;;;;;2.78;2.10;;;13.90;77.20;;;;;;2260281;63;30062;-70
2022/01/10 06:42:31;;;;;;;2.10;1.90;;;13.80;77.10;;;;;;2253271;63;30252;-70
2022/01/10 06:45:00;;;;;;;2.47;2.28;;;13.80;77.10;;;;;;2260438;63;30172;-70
2022/01/10 06:47:26;;;;;;;3.20;2.00;;;13.80;77.00;;;;;;2252958;63;30447;-70
2022/01/10 06:49:52;;;;;;;2.53;1.80;;;13.90;77.00;;;;;;2260535;63;30362;-71
2022/01/10 06:52:18;;;;;;;3.25;2.22;;;13.90;77.00;;;;;;2260375;63;30461;-69
2022/01/10 06:54:44;;;;;;;3.83;2.10;;;13.90;77.00;;;;;;2252926;63;30389;-70
2022/01/10 06:57:10;;;;;;;3.20;2.08;;;13.90;76.80;;;;;;2260258;62;30334;-70
2022/01/10 06:59:35;;;;;;;3.97;2.30;;;13.90;76.80;;;;;;2253241;63;30376;-70
2022/01/10 07:02:01;;;;;;;5.70;2.35;;;13.80;76.80;;;;;;2252952;63;30201;-69
2022/01/10 07:04:28;;;;;;;3.08;2.35;;;13.80;76.90;;;;;;2260343;63;30986;-71
2022/01/10 07:06:54;;;;;;;3.65;2.20;;;13.80;77.00;;;;;;2253042;63;30173;-71
2022/01/10 07:09:20;;;;;;;4.18;2.13;;;13.80;77.00;;;;;;2259896;63;30210;-71
2022/01/10 07:11:46;;;;;;;2.97;2.05;;;13.80;77.00;;;;;;2253119;63;30152;-71
2022/01/10 07:14:13;;;;;;;2.70;2.00;;;13.80;77.00;;;;;;2260170;63;32305;-70
2022/01/10 07:16:40;;;;;;;3.35;2.33;;;13.80;77.00;;;;;;2260154;63;30139;-71
2022/01/10 07:19:07;;;;;;;3.30;2.38;;;13.80;77.10;;;;;;2260319;62;30287;-71
2022/01/10 07:21:33;;;;;;;3.38;2.30;;;13.80;77.10;;;;;;2252981;63;30405;-71
2022/01/10 07:23:59;;;;;;;4.05;2.30;;;13.90;77.10;;;;;;2260031;63;30948;-71
2022/01/10 07:26:27;;;;;;;4.38;2.60;;;13.80;77.00;;;;;;2252993;63;30162;-72
2022/01/10 07:28:53;;;;;;;3.63;2.30;;;13.80;77.00;;;;;;2252706;63;30375;-72
2022/01/10 07:31:19;;;;;;;2.97;2.17;;;13.90;77.10;;;;;;2260201;63;30197;-73
2022/01/10 07:33:45;;;;;;;10.80;7.45;;;13.90;77.20;;;;;;2259905;63;30155;-70
2022/01/10 07:36:12;;;;;;;10.73;6.82;;;13.70;73.50;;;;;;2259619;63;31593;-74
2022/01/10 07:38:38;;;;;;;5.80;4.63;;;13.50;73.70;;;;;;2260130;63;30754;-72
2022/01/10 07:41:07;;;;;;;4.95;3.60;;;13.40;75.30;;;;;;2252806;63;30042;-73
2022/01/10 07:43:35;;;;;;;19.45;4.78;;;13.40;76.10;;;;;;2252526;63;30335;-75
2022/01/10 07:46:01;;;;;;;11.80;5.25;;;13.40;76.60;;;;;;2258885;62;30095;-74
2022/01/10 07:48:28;;;;;;;5.70;4.22;;;13.40;77.00;;;;;;2263768;62;30710;-75
2022/01/10 07:50:54;;;;;;;8.73;4.50;;;13.50;77.20;;;;;;2253694;62;30091;-78
2022/01/10 07:53:20;;;;;;;6.38;4.00;;;13.50;77.30;;;;;;2260618;62;30142;-77
2022/01/10 07:55:46;;;;;;;7.05;4.35;;;13.50;77.20;;;;;;2260120;62;30560;-75
2022/01/10 07:58:12;;;;;;;8.43;4.30;;;13.50;77.10;;;;;;2244866;63;30140;-76
2022/01/10 08:00:38;;;;;;;7.82;4.53;;;13.50;77.30;;;;;;2262277;62;30279;-75
2022/01/10 08:03:04;;;;;;;7.22;3.88;;;13.50;77.30;;;;;;2258936;63;30340;-75
2022/01/10 08:05:30;;;;;;;10.98;4.25;;;13.50;77.30;;;;;;2258765;62;30257;-76
2022/01/10 08:07:56;;;;;;;8.73;4.20;;;13.50;77.30;;;;;;2258325;62;30191;-80
2022/01/10 08:10:22;;;;;;;6.90;4.05;;;13.60;77.30;;;;;;2257823;62;30140;-81
2022/01/10 08:12:48;;;;;;;8.00;3.92;;;13.50;77.30;;;;;;2261248;62;31000;-80
2022/01/10 08:15:14;;;;;;;6.32;3.95;;;13.60;77.30;;;;;;2267058;62;30266;-79
2022/01/10 08:17:40;;;;;;;5.50;3.92;;;13.60;77.30;;;;;;2266910;62;30120;-79
2022/01/10 08:20:07;;;;;;;5.25;4.00;;;13.60;77.30;;;;;;2259445;62;30227;-78
2022/01/10 08:22:33;;;;;;;6.97;3.50;;;13.70;77.30;;;;;;2253152;62;30820;-79
2022/01/10 08:25:01;;;;;;;5.55;3.70;;;13.70;77.20;;;;;;2266781;62;30375;-78
2022/01/10 08:27:30;;;;;;;6.50;3.83;;;13.80;77.20;;;;;;2266625;62;30638;-79
2022/01/10 08:29:59;;;;;;;6.85;3.60;;;13.80;77.10;;;;;;2266722;62;30504;-79
2022/01/10 08:32:25;;;;;;;7.38;3.90;;;13.80;77.10;;;;;;2266744;62;30763;-77
2022/01/10 08:34:52;;;;;;;4.40;3.25;;;13.70;77.10;;;;;;2262466;62;30183;-78
2022/01/10 08:37:21;;;;;;;6.38;3.80;;;13.80;77.20;;;;;;2258593;62;30130;-78
2022/01/10 08:39:49;;;;;;;6.55;3.38;;;13.80;77.20;;;;;;2259824;62;30343;-77
2022/01/10 08:42:19;;;;;;;5.13;3.20;;;13.80;77.10;;;;;;2265621;62;30289;-82
2022/01/10 08:44:45;;;;;;;5.55;3.17;;;13.80;77.10;;;;;;2258877;62;30811;-81
2022/01/10 08:47:11;;;;;;;4.45;3.17;;;13.90;77.10;;;;;;2259168;62;30019;-78
2022/01/10 08:49:37;;;;;;;3.75;2.80;;;13.90;77.00;;;;;;2266519;62;30270;-81
2022/01/10 08:52:03;;;;;;;3.70;2.75;;;13.90;76.90;;;;;;2258863;62;31069;-81
2022/01/10 08:54:30;;;;;;;4.57;2.90;;;14.00;76.90;;;;;;2251099;63;30710;-79
2022/01/10 08:56:56;;;;;;;3.03;2.72;;;14.00;76.90;;;;;;2256847;62;30614;-80
2022/01/10 08:59:22;;;;;;;5.53;2.92;;;14.00;76.80;;;;;;2267976;62;30347;-79
2022/01/10 09:01:53;;;;;;;4.13;3.20;;;14.00;76.70;;;;;;2260491;62;30451;-79
2022/01/10 09:04:19;;;;;;;2.88;2.65;;;14.10;76.70;;;;;;2254030;63;30231;-80
2022/01/10 09:06:48;;;;;;;4.93;3.20;;;14.10;76.60;;;;;;2259710;63;30822;-79
2022/01/10 09:09:15;;;;;;;5.50;3.00;;;14.10;76.60;;;;;;2259761;62;30155;-80
2022/01/10 09:11:41;;;;;;;4.35;2.72;;;14.10;76.70;;;;;;2263582;62;30303;-82
2022/01/10 09:14:07;;;;;;;3.95;2.90;;;14.10;76.60;;;;;;2263317;62;30438;-78
2022/01/10 09:16:33;;;;;;;5.18;3.03;;;14.10;76.70;;;;;;2259809;63;30205;-79
2022/01/10 09:18:59;;;;;;;6.15;2.90;;;14.10;76.60;;;;;;2259852;62;30151;-78
2022/01/10 09:21:25;;;;;;;4.18;2.50;;;14.10;76.60;;;;;;2259630;62;30886;-79
2022/01/10 09:23:54;;;;;;;2.50;2.30;;;14.20;76.60;;;;;;2252562;63;30242;-79
2022/01/10 09:26:20;;;;;;;4.18;2.60;;;14.20;76.50;;;;;;2259907;63;30141;-79
2022/01/10 09:28:46;;;;;;;4.45;3.03;;;14.20;76.50;;;;;;2259747;62;30250;-80
2022/01/10 09:31:12;;;;;;;2.92;2.30;;;14.20;76.40;;;;;;2259714;63;30864;-81
2022/01/10 09:33:39;;;;;;;2.95;2.45;;;14.30;76.40;;;;;;2248298;62;30409;-80
2022/01/10 09:36:05;;;;;;;3.33;2.45;;;14.30;76.30;;;;;;2261879;62;30236;-79
2022/01/10 09:38:33;;;;;;;4.53;2.58;;;14.30;76.20;;;;;;2259588;62;30199;-76
2022/01/10 09:41:02;;;;;;;3.65;2.60;;;14.30;76.20;;;;;;2263004;62;30704;-79
2022/01/10 09:43:28;;;;;;;3.70;2.35;;;14.30;76.10;;;;;;2267273;62;30706;-80
2022/01/10 09:45:56;;;;;;;2.50;2.25;;;14.40;76.10;;;;;;2267854;62;30162;-79
2022/01/10 09:48:22;;;;;;;24.23;4.32;;;14.40;76.10;;;;;;2264785;62;32119;-78
2022/01/10 09:50:51;;;;;;;4.85;2.70;;;14.40;76.10;;;;;;2254884;62;30969;-80
2022/01/10 09:53:18;;;;;;;3.70;2.33;;;14.30;76.10;;;;;;2265109;62;30493;-80
2022/01/10 09:55:44;;;;;;;3.10;2.50;;;14.30;76.10;;;;;;2267339;62;30361;-76
2022/01/10 09:58:12;;;;;;;5.03;3.13;;;14.30;76.10;;;;;;2260234;62;30357;-77
2022/01/10 10:00:39;;;;;;;3.13;2.83;;;14.30;76.10;;;;;;2267580;62;31793;-70
2022/01/10 10:03:06;;;;;;;5.97;2.60;;;14.30;76.10;;;;;;2267506;62;30213;-76
2022/01/10 10:05:32;;;;;;;3.72;2.70;;;14.40;76.10;;;;;;2257708;62;30202;-84
2022/01/10 10:07:58;;;;;;;3.65;2.65;;;14.40;75.90;;;;;;2259858;62;30315;-77
2022/01/10 10:10:24;;;;;;;4.00;2.75;;;14.40;75.80;;;;;;2267454;62;31299;-81
2022/01/10 10:12:51;;;;;;;3.33;2.42;;;14.40;75.70;;;;;;2253238;62;30409;-81
2022/01/10 10:15:21;;;;;;;2.70;2.38;;;14.50;75.70;;;;;;2253463;62;30258;-76
2022/01/10 10:17:47;;;;;;;4.93;2.60;;;14.50;75.60;;;;;;2259407;62;30070;-77
2022/01/10 10:20:17;;;;;;;3.75;2.80;;;14.50;75.50;;;;;;2259719;62;30956;-75
2022/01/10 10:22:45;;;;;;;5.38;2.58;;;14.50;75.60;;;;;;2259548;62;30745;-75
2022/01/10 10:25:11;;;;;;;3.38;2.88;;;14.40;75.70;;;;;;2257604;62;30582;-74
2022/01/10 10:27:38;;;;;;;4.25;2.92;;;14.40;75.70;;;;;;2260241;62;30133;-75
2022/01/10 10:30:26;;;;;;;4.10;2.70;;;14.40;75.60;;;;;;2260017;62;30107;-75
2022/01/10 10:32:52;;;;;;;5.25;2.63;;;14.50;75.60;;;;;;2267260;62;30757;-74
2022/01/10 10:35:20;;;;;;;2.83;2.50;;;14.50;75.60;;;;;;2263338;62;30979;-74
2022/01/10 10:37:48;;;;;;;3.05;2.75;;;14.50;75.50;;;;;;2259288;63;30964;-75
2022/01/10 10:40:16;;;;;;;4.25;2.75;;;14.50;75.50;;;;;;2251967;63;32690;-74
2022/01/10 10:42:42;;;;;;;3.38;2.30;;;14.50;75.50;;;;;;2259101;63;31722;-78
2022/01/10 10:45:10;;;;;;;2.88;2.40;;;14.60;75.40;;;;;;2260209;62;30655;-76
2022/01/10 10:47:37;;;;;;;5.28;2.70;;;14.60;75.40;;;;;;2250937;62;30277;-76
2022/01/10 10:50:07;;;;;;;4.70;3.05;;;14.50;75.40;;;;;;2252141;63;32721;-77
2022/01/10 10:52:34;;;;;;;3.10;2.90;;;14.50;76.40;;;;;;2254169;62;30669;-75
2022/01/10 10:55:10;;;;;;;4.45;2.60;;;14.50;75.60;;;;;;2259798;62;30023;-75
2022/01/10 10:57:36;;;;;;;2.42;2.22;;;14.50;75.50;;;;;;2260462;62;30146;-75
2022/01/10 11:00:08;;;;;;;3.40;2.65;;;14.60;75.50;;;;;;2259706;62;30729;-78
2022/01/10 11:02:34;;;;;;;;;;;14.60;75.40;;;;;;2267591;62;30235;-76
2022/01/10 11:05:04;;;;;;;3.30;2.30;;;14.60;75.40;;;;;;2267126;62;30148;-82
2022/01/10 11:07:32;;;;;;;4.95;3.03;;;14.60;75.40;;;;;;2258633;62;30606;-81
2022/01/10 11:09:58;;;;;;;5.03;3.33;;;14.70;75.40;;;;;;2266812;62;31140;-78
2022/01/10 11:12:24;;;;;;;3.90;2.50;;;14.70;75.30;;;;;;2267146;62;31783;-77
2022/01/10 11:14:52;;;;;;;3.08;2.75;;;14.70;75.30;;;;;;2259360;62;30221;-79
2022/01/10 11:17:21;;;;;;;6.90;2.80;;;14.70;75.40;;;;;;2259752;62;30275;-80
2022/01/10 11:20:12;;;;;;;3.50;2.67;;;14.70;75.30;;;;;;2266779;62;31076;-80
2022/01/10 11:22:42;;;;;;;3.50;2.75;;;14.70;75.20;;;;;;2266954;62;31656;-80
2022/01/10 11:25:30;;;;;;;2.70;2.50;;;14.80;75.10;;;;;;2263621;62;30164;-80
2022/01/10 11:27:58;;;;;;;4.28;2.50;;;14.80;74.90;;;;;;2251912;63;30057;-80
2022/01/10 11:30:29;;;;;;;3.53;2.33;;;14.80;75.20;;;;;;2251877;63;30270;-80
2022/01/10 11:33:04;;;;;;;2.50;2.30;;;14.70;75.20;;;;;;2263646;62;30885;-83
2022/01/10 11:35:44;;;;;;;3.20;2.40;;;14.70;75.30;;;;;;2266861;62;30378;-82
2022/01/10 11:38:29;;;;;;;3.45;2.70;;;14.80;75.30;;;;;;2258799;62;30255;-76
2022/01/10 11:41:04;;;;;;;3.25;2.50;;;14.80;75.20;;;;;;2257372;62;30935;-77
2022/01/10 11:43:47;;;;;;;4.15;2.65;;;14.80;75.10;;;;;;2251749;63;30830;-80
2022/01/10 11:46:41;;;;;;;5.03;2.50;;;14.80;75.00;;;;;;2252525;63;30116;-78
2022/01/10 11:49:11;;;;;;;3.25;2.60;;;14.80;75.00;;;;;;2258962;63;30301;-77
2022/01/10 11:51:38;;;;;;;4.07;2.80;;;14.80;75.20;;;;;;2259211;63;30623;-79
2022/01/10 11:54:14;;;;;;;3.90;2.80;;;14.80;75.20;;;;;;2259066;63;30302;-78
2022/01/10 11:56:42;;;;;;;5.70;2.70;;;14.90;75.20;;;;;;2258851;63;30160;-81
2022/01/10 11:59:12;;;;;;;3.30;2.58;;;14.80;75.20;;;;;;2251618;63;30128;-75
2022/01/10 12:02:09;;;;;;;2.75;2.25;;;14.90;75.20;;;;;;2258884;63;30667;-74
2022/01/10 12:04:57;;;;;;;5.78;2.85;;;14.90;75.10;;;;;;2258058;63;30310;-75
2022/01/10 12:07:23;;;;;;;3.50;2.53;;;14.90;75.20;;;;;;2252648;63;30120;-75
2022/01/10 12:09:49;;;;;;;3.47;2.53;;;14.90;75.20;;;;;;2258733;62;30330;-75
2022/01/10 12:12:16;;;;;;;4.63;2.88;;;14.90;75.30;;;;;;2255503;62;30438;-75
2022/01/10 12:14:43;;;;;;;3.85;2.70;;;14.90;75.30;;;;;;2251787;62;30237;-75
2022/01/10 12:17:09;;;;;;;4.18;2.70;;;14.90;75.40;;;;;;2259660;62;30171;-75
2022/01/10 12:19:35;;;;;;;5.45;3.13;;;14.90;75.40;;;;;;2266951;62;30327;-74
2022/01/10 12:22:05;;;;;;;3.72;3.10;;;15.00;75.40;;;;;;2257396;62;30242;-74
2022/01/10 12:24:37;;;;;;;5.55;3.45;;;15.00;75.50;;;;;;2245314;63;30039;-73
2022/01/10 12:27:03;;;;;;;6.78;3.80;;;15.00;75.60;;;;;;2258511;63;30260;-73
2022/01/10 12:29:31;;;;;;;7.35;4.10;;;15.00;75.60;;;;;;2258561;63;30403;-72
2022/01/10 12:31:58;;;;;;;6.70;3.60;;;15.00;75.60;;;;;;2252402;63;30325;-72
2022/01/10 12:34:23;;;;;;;10.05;4.30;;;15.00;75.60;;;;;;2260080;63;30783;-76
2022/01/10 12:36:55;;;;;;;6.70;3.92;;;15.10;75.60;;;;;;2252673;63;30189;-77
2022/01/10 12:39:27;;;;;;;6.63;3.72;;;15.10;75.60;;;;;;2259746;63;30113;-77
2022/01/10 12:41:56;;;;;;;5.90;3.83;;;15.10;75.60;;;;;;2260000;62;30397;-76
2022/01/10 12:44:22;;;;;;;5.70;3.90;;;15.10;75.60;;;;;;2260345;62;30760;-78
2022/01/10 12:46:48;;;;;;;7.85;3.60;;;15.10;75.50;;;;;;2256337;62;30396;-76
2022/01/10 12:49:15;;;;;;;6.25;3.60;;;15.10;75.60;;;;;;2252526;63;30094;-76
2022/01/10 12:51:48;;;;;;;5.68;3.63;;;15.10;75.70;;;;;;2246166;63;30267;-83
2022/01/10 12:54:19;;;;;;;6.00;3.80;;;15.10;75.80;;;;;;2252758;63;30855;-79
2022/01/10 12:56:45;;;;;;;4.85;3.42;;;15.10;75.80;;;;;;2252945;63;30572;-80
2022/01/10 12:59:12;;;;;;;6.55;4.00;;;15.10;75.90;;;;;;2246171;62;30193;-81
2022/01/10 13:01:38;;;;;;;5.63;3.83;;;15.10;75.80;;;;;;2259748;62;30238;-79
2022/01/10 13:04:04;;;;;;;5.70;3.78;;;15.10;75.90;;;;;;2260219;62;30451;-79